Time;durP1;ratioP1;P1;durP2;ratioP2;P2;SDS_P1;SDS_P2;PMS_P1;PMS_P2;Temp;Humidity;BMP_temperature;BMP_pressure;BME280_temperature;BME280_humidity;BME280_pressure;Samples;Min_cycle;Max_cycle;Signal;HPM_P1;HPM_P2
2022/06/13 00:01:16;;;;;;;1.90;1.80;;;21.70;99.90;;;;;;4980106;28;20715;-72
2022/06/13 00:03:43;;;;;;;1.70;1.60;;;21.70;99.90;;;;;;4981632;28;20243;-71
2022/06/13 00:06:10;;;;;;;1.90;1.80;;;21.70;99.90;;;;;;4979396;28;20205;-72
2022/06/13 00:08:39;;;;;;;1.80;1.70;;;21.80;99.90;;;;;;4995272;28;20225;-72
2022/06/13 00:11:09;;;;;;;1.92;1.73;;;21.80;99.90;;;;;;4986274;28;20299;-72
2022/06/13 00:13:36;;;;;;;1.80;1.70;;;21.80;99.90;;;;;;4980402;28;20226;-73
2022/06/13 00:16:04;;;;;;;1.70;1.60;;;21.80;99.90;;;;;;4985273;28;20261;-73
2022/06/13 00:18:31;;;;;;;1.73;1.63;;;21.80;99.90;;;;;;4987108;28;20236;-72
2022/06/13 00:20:58;;;;;;;1.90;1.80;;;21.80;99.90;;;;;;4983918;28;20656;-73
2022/06/13 00:23:25;;;;;;;1.90;1.80;;;21.80;99.90;;;;;;4985927;28;20217;-72
2022/06/13 00:25:54;;;;;;;1.70;1.60;;;21.80;99.90;;;;;;4987749;28;20201;-72
2022/06/13 00:28:21;;;;;;;1.60;1.50;;;21.80;99.90;;;;;;4982643;28;20233;-72
2022/06/13 00:30:48;;;;;;;2.17;1.98;;;21.80;99.90;;;;;;4985676;28;20205;-72
2022/06/13 00:33:15;;;;;;;1.75;1.65;;;21.70;99.90;;;;;;4988052;28;20742;-72
2022/06/13 00:35:43;;;;;;;1.70;1.60;;;21.60;99.90;;;;;;4987059;28;20197;-72
2022/06/13 00:38:11;;;;;;;1.92;1.83;;;21.60;99.90;;;;;;4981692;28;20746;-72
2022/06/13 00:40:38;;;;;;;1.90;1.80;;;21.60;99.90;;;;;;4983610;28;20204;-72
2022/06/13 00:43:08;;;;;;;2.67;2.08;;;21.50;99.90;;;;;;4985561;28;20228;-71
2022/06/13 00:45:36;;;;;;;1.77;1.67;;;21.50;99.90;;;;;;4985866;28;20284;-73
2022/06/13 00:48:04;;;;;;;1.95;1.83;;;21.50;99.90;;;;;;4984025;28;20221;-72
2022/06/13 00:50:34;;;;;;;1.80;1.70;;;21.60;99.90;;;;;;4983190;28;20212;-72
2022/06/13 00:53:07;;;;;;;1.85;1.75;;;21.60;99.90;;;;;;5000033;28;20239;-72
2022/06/13 00:55:40;;;;;;;1.98;1.70;;;21.60;99.90;;;;;;4990985;28;20197;-72
2022/06/13 00:58:08;;;;;;;1.80;1.70;;;21.60;99.90;;;;;;4978779;28;20237;-72
2022/06/13 01:00:36;;;;;;;2.13;1.95;;;21.60;99.90;;;;;;4984907;28;20197;-72
2022/06/13 01:03:05;;;;;;;2.13;2.03;;;21.50;99.90;;;;;;4988456;28;20220;-72
2022/06/13 01:05:36;;;;;;;1.80;1.70;;;21.50;99.90;;;;;;4984271;28;20233;-73
2022/06/13 01:08:07;;;;;;;1.70;1.60;;;21.50;99.90;;;;;;4984587;28;20673;-71
2022/06/13 01:13:23;;;;;;;3.65;2.00;;;21.40;99.90;;;;;;4982616;28;20741;-72
2022/06/13 01:16:15;;;;;;;2.10;2.00;;;21.40;99.90;;;;;;4990678;28;20224;-72
2022/06/13 01:19:27;;;;;;;2.20;2.00;;;21.40;99.90;;;;;;4984821;28;20224;-71
2022/06/13 01:22:03;;;;;;;2.10;2.00;;;21.30;99.90;;;;;;4970241;28;20209;-72
2022/06/13 01:24:55;;;;;;;2.17;1.98;;;21.30;99.90;;;;;;4986566;28;20221;-72
2022/06/13 01:28:25;;;;;;;1.75;1.65;;;21.30;99.90;;;;;;4984409;28;20229;-73
2022/06/13 01:31:08;;;;;;;2.10;1.90;;;21.30;99.90;;;;;;4927707;29;20280;-72
2022/06/13 01:33:41;;;;;;;3.38;2.42;;;21.20;99.90;;;;;;4926181;29;20230;-73
2022/06/13 01:36:33;;;;;;;2.25;1.92;;;21.20;99.90;;;;;;4955232;28;20205;-74
2022/06/13 01:39:15;;;;;;;2.17;2.03;;;21.20;99.90;;;;;;4999321;28;20224;-73
2022/06/13 01:42:08;;;;;;;2.13;2.03;;;21.20;99.90;;;;;;4988041;28;20279;-73
2022/06/13 01:44:47;;;;;;;2.28;2.08;;;21.10;99.90;;;;;;4982882;28;20225;-72
2022/06/13 01:47:26;;;;;;;2.10;2.00;;;21.10;99.90;;;;;;4981568;28;20197;-72
2022/06/13 01:50:01;;;;;;;1.70;1.60;;;21.00;99.90;;;;;;4988759;23;20229;-79
2022/06/13 01:52:37;;;;;;;2.00;1.90;;;20.90;99.90;;;;;;4963096;28;20204;-79
2022/06/13 01:55:14;;;;;;;2.15;2.05;;;20.90;99.90;;;;;;4968609;28;20197;-79
2022/06/13 01:57:47;;;;;;;1.77;1.67;;;20.90;99.90;;;;;;4966650;28;20713;-78
2022/06/13 02:00:19;;;;;;;2.13;2.03;;;20.80;99.90;;;;;;4964901;28;20236;-77
2022/06/13 02:02:52;;;;;;;1.98;1.88;;;20.80;99.90;;;;;;4965907;28;20228;-78
2022/06/13 02:05:26;;;;;;;2.30;2.10;;;20.80;99.90;;;;;;4966492;28;20236;-77
2022/06/13 02:07:58;;;;;;;1.88;1.77;;;20.80;99.90;;;;;;4965433;28;20223;-77
2022/06/13 02:10:31;;;;;;;2.20;2.10;;;20.80;99.90;;;;;;4962794;28;20222;-77
2022/06/13 02:13:04;;;;;;;2.35;1.88;;;20.80;99.90;;;;;;4964296;28;20221;-77
2022/06/13 02:15:37;;;;;;;2.10;2.00;;;20.80;99.90;;;;;;4966148;28;20194;-76
2022/06/13 02:18:09;;;;;;;2.72;2.08;;;20.80;99.90;;;;;;4957394;28;20221;-77
2022/06/13 02:20:39;;;;;;;2.65;2.00;;;20.70;99.90;;;;;;4964788;28;20201;-77
2022/06/13 02:23:10;;;;;;;2.25;2.15;;;20.70;99.90;;;;;;4961300;28;20242;-77
2022/06/13 02:25:43;;;;;;;2.42;2.22;;;20.70;99.90;;;;;;4963707;28;20217;-77
2022/06/13 02:28:17;;;;;;;2.10;2.00;;;20.60;99.90;;;;;;4958892;28;20815;-77
2022/06/13 02:30:49;;;;;;;2.05;1.85;;;20.70;99.90;;;;;;4962896;28;20202;-77
2022/06/13 02:33:22;;;;;;;2.00;1.90;;;20.70;99.90;;;;;;4960927;28;20229;-77
2022/06/13 02:35:54;;;;;;;1.98;1.88;;;20.70;99.90;;;;;;4963050;28;20292;-77
2022/06/13 02:38:27;;;;;;;2.22;2.13;;;20.70;99.90;;;;;;4959674;28;20228;-77
2022/06/13 02:40:57;;;;;;;2.38;1.88;;;20.70;99.90;;;;;;4965381;28;20202;-76
2022/06/13 02:43:30;;;;;;;2.10;2.00;;;20.80;99.90;;;;;;4964825;28;20217;-77
2022/06/13 02:46:00;;;;;;;2.28;2.17;;;20.80;99.90;;;;;;4962829;28;20228;-77
2022/06/13 02:48:37;;;;;;;1.98;1.88;;;20.90;99.90;;;;;;4959529;28;20280;-78
2022/06/13 02:51:12;;;;;;;2.13;1.98;;;20.80;99.90;;;;;;4965408;28;21296;-76
2022/06/13 02:53:45;;;;;;;2.05;1.95;;;20.80;99.90;;;;;;4961113;28;20226;-77
2022/06/13 02:56:24;;;;;;;3.28;2.58;;;20.80;99.90;;;;;;4962985;28;20205;-76
2022/06/13 02:59:13;;;;;;;2.05;1.95;;;20.80;99.90;;;;;;4970174;28;20222;-77
2022/06/13 03:01:44;;;;;;;2.00;1.90;;;20.80;99.90;;;;;;4962679;28;20213;-77
2022/06/13 03:04:21;;;;;;;2.33;1.65;;;20.90;99.90;;;;;;4963093;28;20229;-77
2022/06/13 03:06:57;;;;;;;1.85;1.75;;;21.00;99.90;;;;;;4964611;28;20882;-77
2022/06/13 03:09:30;;;;;;;2.33;2.13;;;21.00;99.90;;;;;;4966970;28;20225;-77
2022/06/13 03:12:03;;;;;;;2.25;2.15;;;20.90;99.90;;;;;;4960195;28;20580;-77
2022/06/13 03:14:41;;;;;;;2.40;2.20;;;20.70;99.90;;;;;;4960366;28;20284;-77
2022/06/13 03:17:18;;;;;;;2.28;1.98;;;20.60;99.90;;;;;;4964442;28;20656;-77
2022/06/13 03:19:53;;;;;;;3.25;2.70;;;20.70;99.90;;;;;;4965877;28;20221;-77
2022/06/13 03:22:27;;;;;;;2.10;2.00;;;20.60;99.90;;;;;;4964229;28;20540;-77
2022/06/13 03:25:01;;;;;;;2.88;2.35;;;20.60;99.90;;;;;;4964898;28;20596;-77
2022/06/13 03:27:32;;;;;;;2.45;2.25;;;20.50;99.90;;;;;;4961610;28;20205;-78
2022/06/13 03:30:05;;;;;;;2.85;2.42;;;20.30;99.90;;;;;;4961059;28;20692;-77
2022/06/13 03:32:36;;;;;;;2.30;2.10;;;20.20;99.90;;;;;;4963921;28;20209;-77
2022/06/13 03:35:09;;;;;;;2.50;2.30;;;20.20;99.90;;;;;;4964447;28;20209;-77
2022/06/13 03:37:48;;;;;;;2.67;2.13;;;20.20;99.90;;;;;;4959776;28;20292;-77
2022/06/13 03:40:21;;;;;;;2.95;2.65;;;20.20;99.90;;;;;;4959575;28;20232;-76
2022/06/13 03:42:54;;;;;;;3.03;2.50;;;20.00;99.90;;;;;;4962695;28;20232;-77
2022/06/13 03:45:27;;;;;;;3.78;2.50;;;20.00;99.90;;;;;;4958124;28;20213;-77
2022/06/13 03:47:59;;;;;;;4.88;2.95;;;19.90;99.90;;;;;;4962981;28;20194;-77
2022/06/13 03:50:32;;;;;;;2.58;2.38;;;19.80;99.90;;;;;;4964907;28;20228;-77
2022/06/13 03:53:05;;;;;;;3.25;2.75;;;19.80;99.90;;;;;;4968701;28;20206;-77
2022/06/13 03:55:37;;;;;;;3.40;2.65;;;19.90;99.90;;;;;;4964098;28;20840;-77
2022/06/13 03:58:09;;;;;;;2.50;2.33;;;19.90;99.90;;;;;;4966652;28;20198;-77
2022/06/13 04:00:42;;;;;;;2.72;2.53;;;19.90;99.90;;;;;;4969076;28;20234;-77
2022/06/13 04:03:10;;;;;;;2.58;2.38;;;19.90;99.90;;;;;;4965688;28;20221;-77
2022/06/13 04:05:42;;;;;;;2.67;2.55;;;19.90;99.90;;;;;;4967517;28;20237;-77
2022/06/13 04:08:11;;;;;;;2.35;2.20;;;20.00;99.90;;;;;;4966862;28;20248;-77
2022/06/13 04:10:48;;;;;;;2.08;1.88;;;20.00;99.90;;;;;;4964306;28;20696;-77
2022/06/13 04:13:27;;;;;;;2.20;2.10;;;19.90;99.90;;;;;;4963999;28;20213;-77
2022/06/13 04:16:08;;;;;;;3.80;2.10;;;20.00;99.90;;;;;;4966585;28;20622;-77
2022/06/13 04:18:53;;;;;;;2.67;2.47;;;20.00;99.90;;;;;;4967686;28;20257;-77
2022/06/13 04:21:30;;;;;;;2.17;2.08;;;20.00;99.90;;;;;;4966003;28;20250;-77
2022/06/13 04:24:16;;;;;;;2.45;2.25;;;20.00;99.90;;;;;;4960027;28;20226;-77
2022/06/13 04:26:48;;;;;;;2.40;2.20;;;20.00;99.90;;;;;;4961532;28;20225;-77
2022/06/13 04:29:23;;;;;;;2.63;2.50;;;20.00;99.90;;;;;;4963217;28;20232;-77
2022/06/13 04:31:53;;;;;;;3.10;2.50;;;20.00;99.90;;;;;;4967090;28;20224;-78
2022/06/13 04:34:26;;;;;;;2.63;2.42;;;19.70;99.90;;;;;;4964050;28;20221;-77
2022/06/13 04:36:55;;;;;;;2.97;2.78;;;19.60;99.90;;;;;;4968809;28;20299;-78
2022/06/13 04:39:28;;;;;;;2.65;2.45;;;19.60;99.90;;;;;;4967878;28;20226;-77
2022/06/13 04:41:56;;;;;;;2.53;2.33;;;19.60;99.90;;;;;;4968164;28;20561;-77
2022/06/13 04:44:26;;;;;;;2.30;2.10;;;19.60;99.90;;;;;;4967096;28;20221;-77
2022/06/13 04:46:55;;;;;;;3.60;3.15;;;19.60;99.90;;;;;;4964645;28;20214;-77
2022/06/13 04:49:27;;;;;;;2.90;2.70;;;19.60;99.90;;;;;;4968952;28;20228;-77
2022/06/13 04:51:57;;;;;;;2.72;2.53;;;19.40;99.90;;;;;;4968820;28;20201;-77
2022/06/13 04:54:32;;;;;;;2.78;2.58;;;19.30;99.90;;;;;;4962735;28;20225;-77
2022/06/13 04:57:00;;;;;;;3.28;2.90;;;19.20;99.90;;;;;;4966476;28;20201;-77
2022/06/13 04:59:28;;;;;;;2.65;2.45;;;19.20;99.90;;;;;;4964802;28;20232;-78
2022/06/13 05:01:57;;;;;;;2.20;2.10;;;19.30;99.90;;;;;;4964963;28;20198;-78
2022/06/13 05:04:26;;;;;;;2.95;2.75;;;19.40;99.90;;;;;;4962564;28;20221;-76
2022/06/13 05:06:56;;;;;;;2.10;2.00;;;19.60;99.90;;;;;;4965478;28;20696;-77
2022/06/13 05:09:26;;;;;;;2.22;2.03;;;19.60;99.90;;;;;;4963285;28;20233;-78
2022/06/13 05:12:04;;;;;;;2.20;2.10;;;19.60;99.90;;;;;;4964874;28;20206;-80
2022/06/13 05:14:34;;;;;;;2.08;1.98;;;19.70;99.90;;;;;;4961222;28;20268;-77
2022/06/13 05:17:29;;;;;;;2.10;2.00;;;19.80;99.90;;;;;;4965952;28;20854;-78
2022/06/13 05:20:03;;;;;;;2.20;2.00;;;20.20;99.90;;;;;;4936030;28;21617;-77
2022/06/13 05:22:50;;;;;;;2.78;2.58;;;20.50;99.90;;;;;;4965544;28;20212;-77
2022/06/13 05:25:40;;;;;;;3.05;2.60;;;20.80;99.90;;;;;;4966078;28;20316;-77
2022/06/13 05:28:09;;;;;;;3.60;2.47;;;21.10;99.90;;;;;;4964899;28;20237;-77
2022/06/13 05:30:36;;;;;;;2.67;2.47;;;21.20;99.90;;;;;;4965721;28;20225;-77
2022/06/13 05:33:03;;;;;;;2.10;2.00;;;21.40;99.90;;;;;;4963779;28;20735;-77
2022/06/13 05:35:33;;;;;;;2.88;2.67;;;21.50;99.90;;;;;;4973290;28;20580;-78
2022/06/13 05:38:04;;;;;;;3.33;2.00;;;21.80;99.90;;;;;;4962158;28;20198;-77
2022/06/13 05:40:31;;;;;;;2.50;2.00;;;21.80;99.90;;;;;;4963307;28;20264;-77
2022/06/13 05:42:58;;;;;;;2.40;2.30;;;21.80;99.90;;;;;;4963173;28;20556;-77
2022/06/13 05:45:25;;;;;;;2.10;2.00;;;22.00;99.90;;;;;;4964200;28;20220;-77
2022/06/13 05:47:54;;;;;;;3.80;2.40;;;21.90;99.90;;;;;;4962386;28;20622;-78
2022/06/13 05:50:24;;;;;;;2.40;2.20;;;21.90;99.90;;;;;;4963594;28;20262;-78
2022/06/13 05:52:51;;;;;;;2.70;2.50;;;21.80;99.90;;;;;;4965679;28;20293;-78
2022/06/13 05:55:20;;;;;;;3.33;2.50;;;21.80;99.90;;;;;;4966408;28;20236;-77
2022/06/13 05:57:48;;;;;;;2.90;2.70;;;21.90;99.90;;;;;;4967665;28;20260;-77
2022/06/13 06:00:19;;;;;;;3.33;2.60;;;22.20;99.90;;;;;;4964919;28;20255;-76
2022/06/13 06:02:46;;;;;;;2.70;2.50;;;22.30;99.90;;;;;;4962912;28;20519;-77
2022/06/13 06:05:13;;;;;;;2.40;2.20;;;22.10;99.90;;;;;;4962459;28;20433;-76
2022/06/13 06:07:41;;;;;;;3.88;2.72;;;21.90;99.90;;;;;;4962689;28;20201;-77
2022/06/13 06:10:16;;;;;;;3.13;2.83;;;21.60;99.90;;;;;;4962134;28;20233;-76
2022/06/13 06:12:45;;;;;;;2.72;2.53;;;21.40;99.90;;;;;;4963483;28;20228;-75
2022/06/13 06:15:13;;;;;;;3.40;2.90;;;21.20;99.90;;;;;;4965336;28;20313;-76
2022/06/13 06:17:40;;;;;;;3.33;2.97;;;21.20;99.90;;;;;;4963760;28;20205;-77
2022/06/13 06:20:08;;;;;;;2.88;2.67;;;21.20;99.90;;;;;;4963584;28;20225;-77
2022/06/13 06:22:35;;;;;;;2.97;2.70;;;21.10;99.90;;;;;;4963723;28;20432;-78
2022/06/13 06:25:02;;;;;;;2.83;2.63;;;21.10;99.90;;;;;;4964821;28;20592;-76
2022/06/13 06:27:29;;;;;;;3.58;3.28;;;21.40;99.90;;;;;;4979644;28;20229;-77
2022/06/13 06:29:58;;;;;;;3.05;2.75;;;21.60;99.90;;;;;;4962167;28;20248;-75
2022/06/13 06:32:25;;;;;;;2.63;2.42;;;21.80;99.90;;;;;;4956853;28;20206;-76
2022/06/13 06:34:52;;;;;;;3.03;2.83;;;22.10;99.90;;;;;;4961173;28;20249;-77
2022/06/13 06:37:19;;;;;;;2.92;2.72;;;22.30;99.90;;;;;;4966599;28;20712;-79
2022/06/13 06:39:47;;;;;;;3.20;3.00;;;22.60;99.90;;;;;;4966178;28;20923;-79
2022/06/13 06:42:14;;;;;;;3.45;3.03;;;22.90;99.90;;;;;;4958056;28;20209;-77
2022/06/13 06:44:41;;;;;;;3.35;2.97;;;22.90;99.90;;;;;;4961283;28;20221;-76
2022/06/13 06:47:09;;;;;;;3.28;2.75;;;22.90;99.90;;;;;;4963195;28;20232;-77
2022/06/13 06:49:38;;;;;;;3.15;2.90;;;23.10;99.90;;;;;;4964673;28;20744;-78
2022/06/13 06:52:06;;;;;;;3.15;2.95;;;23.30;99.90;;;;;;4963539;28;20210;-78
2022/06/13 07:00:03;;;;;;;4.70;3.00;;;23.50;99.90;;;;;;4963608;28;20224;-78
2022/06/13 07:02:32;;;;;;;3.58;3.38;;;23.30;99.90;;;;;;4960929;28;20209;-76
2022/06/13 07:05:01;;;;;;;3.80;3.50;;;23.20;99.90;;;;;;4956435;28;20313;-77
2022/06/13 07:07:29;;;;;;;4.50;3.00;;;23.20;99.90;;;;;;4963086;28;20226;-77
2022/06/13 07:09:56;;;;;;;3.40;3.08;;;23.40;99.90;;;;;;4961715;28;20229;-77
2022/06/13 07:12:23;;;;;;;3.30;2.90;;;23.10;99.90;;;;;;4963653;28;20590;-77
2022/06/13 07:14:51;;;;;;;3.20;3.00;;;22.90;99.90;;;;;;4960792;28;20222;-77
2022/06/13 07:17:18;;;;;;;2.90;2.70;;;22.70;99.90;;;;;;4963142;28;20614;-76
2022/06/13 07:19:46;;;;;;;2.40;2.20;;;22.60;99.90;;;;;;4976590;28;20225;-76
2022/06/13 07:22:16;;;;;;;2.70;2.50;;;22.50;99.90;;;;;;4964633;28;20691;-76
2022/06/13 07:24:44;;;;;;;2.70;2.50;;;22.50;99.90;;;;;;4963684;28;20304;-76
2022/06/13 07:27:11;;;;;;;3.10;2.80;;;23.00;99.90;;;;;;4967974;28;20218;-77
2022/06/13 07:29:38;;;;;;;3.17;2.88;;;23.40;99.90;;;;;;4964669;28;20257;-77
2022/06/13 07:32:09;;;;;;;3.45;3.05;;;23.60;99.90;;;;;;4964639;28;20680;-77
2022/06/13 07:34:38;;;;;;;3.13;2.92;;;23.80;99.90;;;;;;4967993;28;20221;-77
2022/06/13 07:37:09;;;;;;;3.35;3.05;;;24.10;99.90;;;;;;4965078;28;20585;-78
2022/06/13 07:39:36;;;;;;;3.00;2.70;;;24.40;99.90;;;;;;4964080;28;20228;-77
2022/06/13 07:42:05;;;;;;;3.13;2.85;;;24.00;99.90;;;;;;4967259;28;20204;-76
2022/06/13 07:44:36;;;;;;;3.15;2.90;;;24.20;99.90;;;;;;4968208;28;20774;-76
2022/06/13 07:47:05;;;;;;;2.72;2.53;;;24.30;99.90;;;;;;4969411;28;20249;-77
2022/06/13 07:49:32;;;;;;;2.83;2.63;;;24.20;99.90;;;;;;4959243;28;20285;-76
2022/06/13 07:52:00;;;;;;;2.85;2.65;;;24.10;99.90;;;;;;4977395;23;20586;-76
2022/06/13 07:54:28;;;;;;;2.90;2.67;;;24.10;99.90;;;;;;4962376;28;20243;-76
2022/06/13 07:56:55;;;;;;;3.40;2.70;;;24.00;99.90;;;;;;4969109;28;20200;-77
2022/06/13 07:59:29;;;;;;;3.47;2.47;;;24.00;99.90;;;;;;4965629;28;20233;-76
2022/06/13 08:01:57;;;;;;;2.38;2.28;;;23.90;99.90;;;;;;4964158;28;20218;-76
2022/06/13 08:04:25;;;;;;;2.22;2.10;;;23.70;99.90;;;;;;4960511;28;20375;-77
2022/06/13 08:06:52;;;;;;;3.08;2.78;;;23.60;99.90;;;;;;4966584;28;20613;-76
2022/06/13 08:09:19;;;;;;;2.67;2.17;;;23.70;99.90;;;;;;4963310;28;20234;-76
2022/06/13 08:11:50;;;;;;;3.00;2.80;;;23.70;99.90;;;;;;4960538;28;20229;-75
2022/06/13 08:14:18;;;;;;;2.45;2.30;;;23.60;99.90;;;;;;4961026;28;20221;-76
2022/06/13 08:16:45;;;;;;;2.83;2.42;;;23.50;99.90;;;;;;4965124;28;20207;-77
2022/06/13 08:19:12;;;;;;;2.40;2.20;;;23.40;99.90;;;;;;4961693;28;20225;-77
2022/06/13 08:21:40;;;;;;;2.40;2.20;;;23.40;99.90;;;;;;4956849;28;20226;-76
2022/06/13 08:24:08;;;;;;;2.35;2.15;;;23.40;99.90;;;;;;4960857;28;20708;-76
2022/06/13 08:26:35;;;;;;;2.67;2.00;;;23.50;99.90;;;;;;4963350;28;20313;-77
2022/06/13 08:29:05;;;;;;;2.92;2.60;;;23.60;99.90;;;;;;4960000;28;20202;-75
2022/06/13 08:31:33;;;;;;;2.95;2.40;;;23.80;99.90;;;;;;4965001;28;20228;-77
2022/06/13 08:34:00;;;;;;;2.53;2.33;;;23.80;99.90;;;;;;4960985;28;20677;-76
2022/06/13 08:36:27;;;;;;;3.63;2.78;;;23.90;99.90;;;;;;4959439;28;20198;-76
2022/06/13 08:38:54;;;;;;;3.22;2.30;;;24.00;99.90;;;;;;4958064;28;20715;-76
2022/06/13 08:41:33;;;;;;;2.30;2.20;;;23.90;99.90;;;;;;4964744;28;20194;-77
2022/06/13 08:44:35;;;;;;;2.95;2.75;;;24.40;99.90;;;;;;4966084;28;20194;-75
2022/06/13 08:47:11;;;;;;;3.05;2.30;;;24.70;99.90;;;;;;4970966;28;20228;-77
2022/06/13 08:49:42;;;;;;;2.70;2.50;;;24.80;99.90;;;;;;4967231;28;20217;-77
2022/06/13 08:52:21;;;;;;;2.47;2.25;;;24.80;99.90;;;;;;4963299;28;20217;-75
2022/06/13 08:54:53;;;;;;;2.53;2.33;;;24.90;99.90;;;;;;4960102;28;20252;-76
2022/06/13 08:57:21;;;;;;;4.03;2.58;;;24.70;99.90;;;;;;4959990;28;20213;-76
2022/06/13 08:59:55;;;;;;;2.45;2.25;;;25.10;99.90;;;;;;4953464;28;20233;-76
2022/06/13 09:02:28;;;;;;;2.72;2.35;;;25.50;99.90;;;;;;4959540;28;20245;-74
2022/06/13 09:05:00;;;;;;;2.83;2.60;;;25.70;99.90;;;;;;4957298;28;20226;-76
2022/06/13 09:07:32;;;;;;;5.47;2.78;;;26.00;99.90;;;;;;4957655;28;20603;-77
2022/06/13 09:10:05;;;;;;;3.03;2.83;;;26.40;99.90;;;;;;4963806;28;20649;-76
2022/06/13 09:12:46;;;;;;;2.33;2.20;;;26.40;99.90;;;;;;4957091;28;20853;-77
2022/06/13 09:15:19;;;;;;;2.20;2.10;;;26.40;99.90;;;;;;4958440;28;20225;-77
2022/06/13 09:17:52;;;;;;;2.42;2.22;;;26.10;99.90;;;;;;4960469;28;20209;-76
2022/06/13 09:20:29;;;;;;;2.80;2.15;;;26.20;99.90;;;;;;4958130;28;20311;-77
2022/06/13 09:23:02;;;;;;;2.25;2.15;;;26.20;99.90;;;;;;4955678;28;20222;-76
2022/06/13 09:25:39;;;;;;;2.00;1.80;;;25.80;99.90;;;;;;4957856;28;20776;-77
2022/06/13 09:28:11;;;;;;;2.03;1.92;;;25.40;99.90;;;;;;4959147;28;20222;-78
2022/06/13 09:30:46;;;;;;;2.38;2.15;;;25.10;99.90;;;;;;4956779;28;20223;-76
2022/06/13 09:33:19;;;;;;;2.55;2.10;;;25.10;99.90;;;;;;4955588;28;20225;-74
2022/06/13 09:35:49;;;;;;;2.20;2.10;;;25.50;99.90;;;;;;4953992;28;20236;-77
2022/06/13 09:38:23;;;;;;;2.30;2.10;;;25.80;99.90;;;;;;4952873;28;20202;-76
2022/06/13 09:41:04;;;;;;;2.10;2.00;;;25.80;99.90;;;;;;4954405;28;20246;-77
2022/06/13 09:43:49;;;;;;;2.70;2.50;;;25.30;99.90;;;;;;4954790;28;20234;-76
2022/06/13 09:46:28;;;;;;;2.13;2.00;;;24.70;99.90;;;;;;4956467;28;20222;-78
2022/06/13 09:49:16;;;;;;;2.33;1.92;;;24.20;99.90;;;;;;4961469;28;20202;-77
2022/06/13 09:51:55;;;;;;;2.00;1.90;;;23.90;99.90;;;;;;4961054;28;20457;-77
2022/06/13 09:54:34;;;;;;;2.08;1.92;;;23.70;99.90;;;;;;4954970;28;20901;-78
2022/06/13 09:57:10;;;;;;;2.00;1.90;;;23.70;99.90;;;;;;4958350;28;20309;-77
2022/06/13 09:59:52;;;;;;;1.45;1.40;;;23.70;99.90;;;;;;4961077;28;20618;-77
2022/06/13 10:02:28;;;;;;;1.98;1.73;;;24.20;99.90;;;;;;4960125;28;20234;-78
2022/06/13 10:05:02;;;;;;;2.30;2.10;;;25.20;99.90;;;;;;4962387;28;20205;-76
2022/06/13 10:07:40;;;;;;;2.00;1.90;;;25.80;99.90;;;;;;4959860;28;20592;-76
2022/06/13 10:10:11;;;;;;;2.72;1.83;;;26.30;99.90;;;;;;4968701;28;20205;-76
2022/06/13 10:12:48;;;;;;;2.20;2.05;;;26.40;99.90;;;;;;4963275;28;20232;-77
2022/06/13 10:15:31;;;;;;;1.95;1.85;;;26.80;99.90;;;;;;4963667;28;20200;-77
2022/06/13 10:18:14;;;;;;;2.92;2.00;;;27.10;99.90;;;;;;4963129;28;20271;-78
2022/06/13 10:20:48;;;;;;;2.20;2.10;;;27.10;99.90;;;;;;4961948;28;20206;-78
2022/06/13 10:23:26;;;;;;;2.30;1.90;;;27.30;99.90;;;;;;4961824;28;20229;-76
2022/06/13 10:26:04;;;;;;;2.58;1.90;;;27.40;99.90;;;;;;4960224;28;20202;-76
2022/06/13 10:28:54;;;;;;;3.85;2.05;;;27.40;99.90;;;;;;4965321;28;20222;-77
2022/06/13 10:31:33;;;;;;;3.72;2.13;;;27.30;99.90;;;;;;4967903;28;20200;-78
2022/06/13 10:34:13;;;;;;;2.30;2.10;;;27.20;99.90;;;;;;4972509;28;20226;-77
2022/06/13 10:36:56;;;;;;;2.22;2.03;;;27.10;99.90;;;;;;4969009;28;20723;-77
2022/06/13 10:39:27;;;;;;;2.00;1.90;;;27.00;99.90;;;;;;4965037;28;20201;-77
2022/06/13 10:41:58;;;;;;;2.63;1.92;;;27.10;99.90;;;;;;4962969;28;20230;-77
2022/06/13 10:44:25;;;;;;;2.00;1.90;;;27.50;99.90;;;;;;4957843;28;20217;-78
2022/06/13 10:46:57;;;;;;;1.95;1.80;;;27.60;99.90;;;;;;4970897;28;20238;-77
2022/06/13 10:49:31;;;;;;;2.25;1.90;;;27.40;99.90;;;;;;4969180;28;20198;-77
2022/06/13 10:52:03;;;;;;;2.83;2.10;;;27.50;99.90;;;;;;4970314;28;20248;-77
2022/06/13 10:54:35;;;;;;;3.95;2.00;;;27.60;99.90;;;;;;4965261;28;20199;-78
2022/06/13 10:57:07;;;;;;;1.92;1.83;;;27.50;99.90;;;;;;4957855;28;20236;-77
2022/06/13 10:59:37;;;;;;;1.80;1.70;;;27.20;99.90;;;;;;4961321;28;20201;-77
2022/06/13 11:02:06;;;;;;;2.55;1.88;;;27.40;99.90;;;;;;4961094;28;20225;-77
2022/06/13 11:04:36;;;;;;;1.92;1.80;;;27.30;99.90;;;;;;4965867;28;20197;-77
2022/06/13 11:07:10;;;;;;;2.05;1.92;;;27.10;99.90;;;;;;4958659;28;20230;-76
2022/06/13 11:09:40;;;;;;;1.77;1.67;;;26.80;99.90;;;;;;4959245;28;20228;-77
2022/06/13 11:12:27;;;;;;;1.90;1.80;;;26.40;99.90;;;;;;4955851;28;21288;-77
2022/06/13 11:23:21;;;;;;;1.58;1.48;;;26.80;99.90;;;;;;4970066;28;20224;-78
2022/06/13 11:25:56;;;;;;;1.70;1.45;;;26.70;99.90;;;;;;4957152;28;20298;-77
2022/06/13 11:28:28;;;;;;;1.48;1.38;;;26.70;99.90;;;;;;4955031;28;20240;-77
2022/06/13 11:31:19;;;;;;;1.50;1.40;;;26.50;99.90;;;;;;4959879;28;20197;-78
2022/06/13 11:33:46;;;;;;;1.77;1.40;;;26.40;99.90;;;;;;4950228;28;20225;-75
2022/06/13 11:36:34;;;;;;;1.52;1.40;;;26.30;99.90;;;;;;4962814;28;20205;-77
2022/06/13 11:39:04;;;;;;;1.48;1.38;;;26.30;99.90;;;;;;4955281;28;20254;-77
2022/06/13 11:41:35;;;;;;;1.50;1.40;;;26.40;99.90;;;;;;4957142;28;20198;-75
2022/06/13 11:44:06;;;;;;;1.30;1.20;;;26.50;99.90;;;;;;4953784;28;20233;-77
2022/06/13 11:46:42;;;;;;;1.27;1.17;;;26.40;99.90;;;;;;4964546;28;20206;-74
2022/06/13 11:49:28;;;;;;;1.20;1.20;;;26.40;99.90;;;;;;4956725;28;20692;-79
2022/06/13 11:52:07;;;;;;;1.05;1.05;;;26.30;99.90;;;;;;4944961;28;20261;-82
2022/06/13 11:54:39;;;;;;;1.20;1.10;;;26.30;99.90;;;;;;4953315;28;20277;-78
2022/06/13 11:57:32;;;;;;;1.50;1.40;;;26.30;99.90;;;;;;4956930;28;20202;-77
2022/06/13 12:00:03;;;;;;;2.88;1.30;;;26.20;99.90;;;;;;4966176;28;20234;-77
2022/06/13 12:02:52;;;;;;;1.50;1.40;;;26.10;99.90;;;;;;4962561;28;20252;-77
2022/06/13 12:05:31;;;;;;;3.63;1.80;;;25.90;99.90;;;;;;4967360;28;20277;-79
2022/06/13 12:08:25;;;;;;;1.65;1.55;;;25.60;99.90;;;;;;4964151;28;20241;-78
2022/06/13 12:11:09;;;;;;;2.85;1.50;;;25.20;99.90;;;;;;4961261;28;20583;-78
2022/06/13 12:13:59;;;;;;;2.15;1.45;;;24.70;99.90;;;;;;4994803;23;20232;-76
2022/06/13 12:16:40;;;;;;;2.63;1.48;;;24.20;99.90;;;;;;4975069;28;20209;-78
2022/06/13 12:19:16;;;;;;;1.10;1.10;;;24.00;99.90;;;;;;4973837;28;20217;-77
2022/06/13 12:21:49;;;;;;;0.90;0.90;;;23.80;99.90;;;;;;4964401;28;20720;-78
2022/06/13 12:24:23;;;;;;;0.90;0.90;;;23.80;99.90;;;;;;4963881;28;20696;-77
2022/06/13 12:27:02;;;;;;;1.30;1.10;;;23.90;99.90;;;;;;4958035;28;20574;-78
2022/06/13 12:29:55;;;;;;;1.02;1.02;;;24.00;99.90;;;;;;4958989;28;20260;-79
2022/06/13 12:32:26;;;;;;;3.22;1.00;;;24.10;99.90;;;;;;4964861;28;20217;-77
2022/06/13 12:35:09;;;;;;;0.98;0.98;;;24.10;99.90;;;;;;4959642;28;20194;-79
2022/06/13 12:37:45;;;;;;;1.00;0.90;;;24.40;99.90;;;;;;4958957;28;20233;-77
2022/06/13 12:40:22;;;;;;;1.30;1.20;;;24.90;99.90;;;;;;4961534;28;20190;-78
2022/06/13 12:43:11;;;;;;;1.23;1.15;;;25.40;99.90;;;;;;4962267;28;20276;-78
2022/06/13 12:45:54;;;;;;;1.60;1.50;;;26.00;99.90;;;;;;4959920;28;20436;-78
2022/06/13 12:48:30;;;;;;;1.50;1.40;;;26.60;99.90;;;;;;4960082;28;20226;-77
2022/06/13 12:51:20;;;;;;;2.80;1.75;;;27.00;99.90;;;;;;4958701;28;20256;-79
2022/06/13 12:54:23;;;;;;;1.58;1.48;;;27.20;99.90;;;;;;4956471;28;20233;-79
2022/06/13 12:56:59;;;;;;;1.95;1.40;;;27.10;99.90;;;;;;4960721;28;20189;-79
2022/06/13 12:59:41;;;;;;;1.50;1.40;;;27.60;99.90;;;;;;4962097;28;20228;-78
2022/06/13 13:02:24;;;;;;;1.30;1.20;;;28.10;99.90;;;;;;4959051;28;20221;-79
2022/06/13 13:05:08;;;;;;;1.40;1.30;;;28.50;99.90;;;;;;4958612;28;20218;-78
2022/06/13 13:07:45;;;;;;;2.13;1.90;;;28.60;99.90;;;;;;4964974;28;20194;-76
2022/06/13 13:10:38;;;;;;;1.95;1.85;;;28.50;99.90;;;;;;4961740;28;20228;-77
2022/06/13 13:13:50;;;;;;;1.55;1.45;;;28.20;99.90;;;;;;4964533;28;20229;-77
2022/06/13 13:16:31;;;;;;;1.63;1.50;;;28.10;99.90;;;;;;4957145;28;20214;-77
2022/06/13 13:19:34;;;;;;;1.77;1.67;;;28.00;99.90;;;;;;4961028;28;20286;-77
2022/06/13 13:22:11;;;;;;;1.75;1.65;;;28.10;99.90;;;;;;4959309;28;20320;-75
2022/06/13 13:24:53;;;;;;;1.70;1.55;;;28.30;99.90;;;;;;4961318;28;20289;-78
2022/06/13 13:27:21;;;;;;;2.00;1.42;;;28.10;99.90;;;;;;4967855;28;20624;-80
2022/06/13 13:30:02;;;;;;;1.33;1.23;;;27.90;99.90;;;;;;4963833;28;20855;-78
2022/06/13 13:32:40;;;;;;;1.63;1.52;;;28.30;99.90;;;;;;4969903;28;20235;-78
2022/06/13 13:35:19;;;;;;;1.35;1.20;;;28.50;99.90;;;;;;4970701;28;20190;-79
2022/06/13 13:37:51;;;;;;;2.28;1.65;;;28.40;99.90;;;;;;4964890;28;20508;-77
2022/06/13 13:40:22;;;;;;;1.33;1.27;;;28.50;99.90;;;;;;4970149;28;20206;-77